Flight Track Log - Related Links

Times and Time Zones

All times are in EDT time to prevent confusion due to time zone crossing. See the DAL1903 flight status page for this flight to view local times or setup timezone preferences in your user account.

Time Position Orientation Groundspeed Altitude Reporting Facility
EDT Latitude Longitude Course Direction KTS MPH feet Rate Location/Type
Thu 12:04:48 PM 40.8000 -73.8667 242° Southwest 156 180 1,400  Level New York TRACON
Thu 12:05:48 PM 40.8667 -73.8833 349° North 229 264 3,500 2,807 Climbing New York TRACON
Thu 12:07:00 PM 40.6403 -74.2594 244° Southwest  Level FlightAware Approximate
Thu 12:07:39 PM 40.9153 -74.0086 297° West 252 290 9,400  Level New York Center
Thu 12:08:00 PM 40.5922 -74.3902 246° West  Level FlightAware Approximate
Thu 12:08:40 PM 40.8756 -74.0861 236° Southwest 266 306 12,200  Level New York Center
Thu 12:09:00 PM 40.5478 -74.5233 246° West  Level FlightAware Approximate
Thu 12:09:41 PM 40.8289 -74.1828 237° Southwest 293 337 14,600  Level New York Center
Thu 12:10:00 PM 40.5105 -74.6571 242° Southwest  Level FlightAware Approximate
Thu 12:10:39 PM 40.7894 -74.2547 234° Southwest 293 337 16,900  Level New York Center
Thu 12:11:40 PM 40.7408 -74.3453 235° Southwest 286 329 17,100 98 Climbing New York Center
Thu 12:12:41 PM 40.6986 -74.4333 238° Southwest 286 329 17,100 864 Level New York Center
Thu 12:13:38 PM 40.6586 -74.5133 237° Southwest 286 329 18,800 1,678 Climbing New York Center
Thu 12:14:39 PM 40.6078 -74.6008 233° Southwest 303 349 20,400 1,770 Climbing New York Center
Thu 12:15:40 PM 40.5528 -74.6933 232° Southwest 310 357 22,400 1,869 Climbing New York Center
Thu 12:16:41 PM 40.4956 -74.7828 230° Southwest 322 371 24,200 1,966 Climbing New York Center
Thu 12:17:39 PM 40.4361 -74.8775 231° Southwest 327 376 26,300 1,815 Climbing New York Center
Thu 12:18:40 PM 40.3764 -74.9694 230° Southwest 332 382 27,800 1,279 Climbing New York Center
Thu 12:19:41 PM 40.3144 -75.0689 231° Southwest 343 395 28,900 1,119 Climbing New York Center
Thu 12:20:38 PM 40.2503 -75.1683 230° Southwest 354 407 30,000 1,169 Climbing New York Center
Thu 12:21:39 PM 40.1861 -75.2703 231° Southwest 365 420 31,200 992 Climbing New York Center
Thu 12:22:39 PM 40.1217 -75.3719 230° Southwest 365 420 32,000 397 Climbing New York Center
Thu 12:23:40 PM 40.0553 -75.4706 229° Southwest 365 420 32,000  Level New York Center
Thu 12:24:41 PM 39.9886 -75.5719 229° Southwest 365 420 32,000  Level New York Center
Thu 12:25:39 PM 39.9219 -75.6756 230° Southwest 370 426 32,000  Level New York Center
Thu 12:26:39 PM 39.8592 -75.7767 231° Southwest 370 426 32,000  Level New York Center
Thu 12:27:40 PM 39.7925 -75.8772 229° Southwest 370 426 32,000  Level New York Center
Thu 12:28:40 PM 39.7275 -75.9806 231° Southwest 370 426 32,000  Level New York Center
Thu 12:30:38 PM 39.5956 -76.1894 231° Southwest 373 429 32,000  Level Washington Center
Thu 12:31:38 PM 39.5283 -76.2883 229° Southwest 373 429 32,000  Level Washington Center
Thu 12:32:39 PM 39.4631 -76.3925 231° Southwest 378 435 32,000  Level Washington Center
Thu 12:33:38 PM 39.3956 -76.4939 229° Southwest 373 429 32,000  Level Washington Center
Thu 12:34:38 PM 39.3261 -76.5978 229° Southwest 373 429 32,000  Level Washington Center
Thu 12:35:38 PM 39.2606 -76.6986 230° Southwest 373 429 32,000  Level Washington Center
Thu 12:36:38 PM 39.1950 -76.8022 231° Southwest 373 429 32,000  Level Washington Center
Thu 12:37:38 PM 39.1314 -76.9056 232° Southwest 373 429 32,000  Level Washington Center
Thu 12:38:38 PM 39.0656 -77.0031 229° Southwest 373 429 32,000  Level Washington Center
Thu 12:39:38 PM 38.9936 -77.0953 225° Southwest 373 429 32,000  Level Washington Center
Thu 12:40:38 PM 38.9156 -77.1764 219° Southwest 373 429 32,000  Level Washington Center
Thu 12:41:38 PM 38.8372 -77.2625 221° Southwest 373 429 32,000  Level Washington Center
Thu 12:42:38 PM 38.7608 -77.3489 221° Southwest 368 423 32,000  Level Washington Center
Thu 12:43:38 PM 38.6825 -77.4319 220° Southwest 368 423 32,000  Level Washington Center
Thu 12:44:38 PM 38.6061 -77.5150 220° Southwest 368 423 32,000  Level Washington Center
Thu 12:45:38 PM 38.5211 -77.6083 221° Southwest 368 423 32,000  Level Washington Center
Thu 12:47:00 PM 38.4105 -77.7242 219° Southwest  Level FlightAware Approximate
Thu 12:47:39 PM 38.3661 -77.7764 219° Southwest 368 423 32,000  Level Washington Center
Thu 12:48:38 PM 38.2894 -77.8614 221° Southwest 368 423 32,000  Level Washington Center
Thu 12:49:38 PM 38.2106 -77.9436 219° Southwest 368 423 32,000  Level Washington Center
Thu 12:50:39 PM 38.1339 -78.0283 221° Southwest 368 423 32,000  Level Washington Center
Thu 12:51:38 PM 38.0550 -78.1103 219° Southwest 368 423 32,000  Level Washington Center
Thu 12:52:38 PM 37.9825 -78.1894 221° Southwest 368 423 32,000  Level Washington Center
Thu 12:53:38 PM 37.9164 -78.2503 216° Southwest 368 423 32,000  Level Washington Center
Thu 12:54:38 PM 37.8186 -78.3414 216° Southwest 368 423 32,000  Level Washington Center
Thu 12:55:39 PM 37.7439 -78.4097 216° Southwest 368 423 32,000  Level Washington Center
Thu 12:56:38 PM 37.6628 -78.4881 217° Southwest 368 423 32,000  Level Washington Center
Thu 12:57:38 PM 37.5817 -78.5636 216° Southwest 373 429 32,000  Level Washington Center
Thu 12:58:38 PM 37.5025 -78.6389 217° Southwest 373 429 32,000  Level Washington Center
Thu 12:59:39 PM 37.4128 -78.7217 216° Southwest 373 429 32,000  Level Washington Center
Thu 01:00:39 PM 37.3317 -78.7967 216° Southwest 373 429 32,000  Level Washington Center
Thu 01:01:39 PM 37.2503 -78.8742 217° Southwest 373 429 32,000  Level Washington Center
Thu 01:02:39 PM 37.1669 -78.9489 216° Southwest 373 429 32,000  Level Washington Center
Thu 01:03:39 PM 37.0856 -79.0233 216° Southwest 373 429 32,000  Level Washington Center
Thu 01:04:38 PM 37.0103 -79.0928 216° Southwest 373 429 32,000 400 Level Washington Center
Thu 01:05:39 PM 36.9289 -79.1697 217° Southwest 373 429 32,800 702 Climbing Washington Center
Thu 01:07:29 PM 36.7742 -79.3067 215° Southwest 377 434 34,000 424 Climbing Atlanta Center
Thu 01:08:29 PM 36.6856 -79.3897 217° Southwest 377 434 34,000  Level Atlanta Center
Thu 01:09:29 PM 36.6031 -79.4667 217° Southwest 377 434 34,000  Level Atlanta Center
Thu 01:10:29 PM 36.5222 -79.5411 217° Southwest 377 434 34,000  Level Atlanta Center
Thu 01:11:29 PM 36.4353 -79.6156 215° Southwest 377 434 34,000  Level Atlanta Center
Thu 01:12:29 PM 36.3608 -79.6869 218° Southwest 377 434 34,000  Level Atlanta Center
Thu 01:13:29 PM 36.2758 -79.7636 216° Southwest 377 434 34,000  Level Atlanta Center
Thu 01:14:29 PM 36.1908 -79.8400 216° Southwest 382 440 34,000  Level Atlanta Center
Thu 01:15:29 PM 36.1078 -79.9139 216° Southwest 382 440 34,000  Level Atlanta Center
Thu 01:16:29 PM 36.0061 -79.9908 211° Southwest 382 440 34,000  Level Atlanta Center
Thu 01:17:29 PM 35.9056 -80.0394 201° Southwest 382 440 34,000  Level Atlanta Center
Thu 01:18:29 PM 35.8028 -80.0906 202° Southwest 393 452 34,000  Level Atlanta Center
Thu 01:19:29 PM 35.7003 -80.1442 203° Southwest 399 459 34,000  Level Atlanta Center
Thu 01:20:29 PM 35.5978 -80.1975 203° Southwest 405 466 34,000  Level Atlanta Center
Thu 01:21:29 PM 35.4950 -80.2508 203° Southwest 405 466 34,000  Level Atlanta Center
Thu 01:22:29 PM 35.3922 -80.2989 201° Southwest 400 460 34,000  Level Atlanta Center
Thu 01:23:29 PM 35.2894 -80.3494 202° Southwest 400 460 34,000 200 Level Atlanta Center
Thu 01:24:29 PM 35.1886 -80.3994 202° Southwest 400 460 34,400 650 Climbing Atlanta Center
Thu 01:25:29 PM 35.0839 -80.4525 203° Southwest 400 460 35,300 536 Climbing Atlanta Center
Thu 01:27:28 PM 34.8931 -80.5464 202° Southwest 389 448 36,000 236 Climbing Jacksonville Center
Thu 01:28:27 PM 34.7981 -80.5969 204° Southwest 389 448 36,000  Level Jacksonville Center
Thu 01:29:27 PM 34.6967 -80.6428 200° South 377 434 36,000  Level Jacksonville Center
Thu 01:30:27 PM 34.5808 -80.7011 203° Southwest 395 455 36,000  Level Jacksonville Center
Thu 01:31:27 PM 34.4756 -80.7567 204° Southwest 417 480 36,000  Level Jacksonville Center
Thu 01:32:28 PM 34.3719 -80.8072 202° Southwest 410 472 36,000  Level Jacksonville Center
Thu 01:33:27 PM 34.2914 -80.8492 203° Southwest 411 473 36,000  Level Jacksonville Center
Thu 01:34:27 PM 34.1836 -80.8969 200° South 397 457 36,000  Level Jacksonville Center
Thu 01:35:28 PM 34.0822 -80.9469 202° Southwest 397 457 36,000  Level Jacksonville Center
Thu 01:36:28 PM 33.9786 -80.9967 202° Southwest 397 457 36,000  Level Jacksonville Center
Thu 01:37:27 PM 33.8667 -81.0492 201° Southwest 390 449 36,000  Level Jacksonville Center
Thu 01:38:27 PM 33.7611 -81.1014 202° Southwest 395 455 36,000  Level Jacksonville Center
Thu 01:39:28 PM 33.6678 -81.1506 204° Southwest 401 461 36,000  Level Jacksonville Center
Thu 01:40:27 PM 33.5622 -81.2028 202° Southwest 406 467 36,000  Level Jacksonville Center
Thu 01:41:27 PM 33.4564 -81.2544 202° Southwest 411 473 36,000  Level Jacksonville Center
Thu 01:42:28 PM 33.3486 -81.3061 202° Southwest 417 480 36,000  Level Jacksonville Center
Thu 01:43:27 PM 33.2469 -81.3575 203° Southwest 412 474 36,000  Level Jacksonville Center
Thu 01:44:27 PM 33.1389 -81.4092 202° Southwest 412 474 36,000  Level Jacksonville Center
Thu 01:45:28 PM 33.0311 -81.4628 203° Southwest 418 481 36,000  Level Jacksonville Center
Thu 01:46:28 PM 32.9253 -81.5142 202° Southwest 418 481 36,000  Level Jacksonville Center
Thu 01:47:27 PM 32.8192 -81.5678 203° Southwest 418 481 36,000  Level Jacksonville Center
Thu 01:48:27 PM 32.7114 -81.6186 202° Southwest 413 475 36,000  Level Jacksonville Center
Thu 01:49:27 PM 32.6075 -81.6694 202° Southwest 413 475 36,000  Level Jacksonville Center
Thu 01:50:27 PM 32.4889 -81.7275 202° Southwest 413 475 36,000  Level Jacksonville Center
Thu 01:51:28 PM 32.3933 -81.7706 201° Southwest 413 475 36,000  Level Jacksonville Center
Thu 01:52:27 PM 32.2728 -81.8286 202° Southwest 419 482 36,000  Level Jacksonville Center
Thu 01:53:28 PM 32.1667 -81.8814 203° Southwest 419 482 36,000  Level Jacksonville Center
Thu 01:54:27 PM 32.0711 -81.9267 202° Southwest 414 476 36,000  Level Jacksonville Center
Thu 01:55:28 PM 31.9503 -81.9817 201° Southwest 414 476 36,000  Level Jacksonville Center
Thu 01:56:28 PM 31.8483 -82.0194 197° South 414 476 36,000  Level Jacksonville Center
Thu 01:57:28 PM 31.7253 -82.0694 199° South 425 489 36,000  Level Jacksonville Center
Thu 01:58:27 PM 31.6108 -82.1192 200° South 440 506 36,000  Level Jacksonville Center
Thu 01:59:27 PM 31.5089 -82.1614 199° South 440 506 36,000  Level Jacksonville Center
Thu 02:00:28 PM 31.3942 -82.2061 198° South 434 499 36,000  Level Jacksonville Center
Thu 02:01:28 PM 31.2817 -82.2508 199° South 434 499 36,000  Level Jacksonville Center
Thu 02:02:28 PM 31.1672 -82.2953 198° South 434 499 36,000  Level Jacksonville Center
Thu 02:03:28 PM 31.0525 -82.3422 199° South 434 499 36,000  Level Jacksonville Center
Thu 02:04:28 PM 30.9294 -82.3914 199° South 434 499 36,000  Level Jacksonville Center
Thu 02:05:27 PM 30.8147 -82.4353 198° South 434 499 36,000  Level Jacksonville Center
Thu 02:06:28 PM 30.7000 -82.4794 198° South 434 499 36,000  Level Jacksonville Center
Thu 02:07:28 PM 30.5856 -82.5233 198° South 434 499 36,000  Level Jacksonville Center
Thu 02:08:27 PM 30.4664 -82.5456 189° South 434 499 36,000  Level Jacksonville Center
Thu 02:09:28 PM 30.3347 -82.5003 163° South 459 528 36,000  Level Jacksonville Center
Thu 02:10:28 PM 30.2053 -82.4553 163° South 472 543 36,000 -252 Level Jacksonville Center
Thu 02:11:27 PM 30.0797 -82.3908 156° South 477 549 35,500 -700 Descending Jacksonville Center
Thu 02:12:28 PM 29.9667 -82.3364 157° South 485 558 34,600 -4,215 Descending Jacksonville Center
Thu 02:13:28 PM 29.8206 -82.3108 171° South 485 558 27,000 -3,630 Descending Jacksonville Center
Thu 02:14:27 PM 29.6992 -82.2733 165° South 492 566 27,400 -500 Climbing Jacksonville Center
Thu 02:15:28 PM 29.5717 -82.2503 171° South 486 559 26,000 -1,190 Descending Jacksonville Center
Thu 02:16:28 PM 29.4464 -82.2319 173° South 474 545 25,000 -504 Descending Jacksonville Center
Thu 02:17:27 PM 29.3231 -82.2114 172° South 462 532 25,000 -555 Level Jacksonville Center
Thu 02:18:27 PM 29.2000 -82.1956 174° South 456 525 23,900 -1,736 Descending Jacksonville Center
Thu 02:19:28 PM 29.0808 -82.1775 172° South 450 518 21,500 -2,500 Descending Jacksonville Center
Thu 02:20:27 PM 28.9617 -82.1617 173° South 438 504 18,900 -2,600 Descending Jacksonville Center
Thu 02:21:28 PM 28.8386 -82.1411 172° South 424 488 16,300 -2,203 Descending Jacksonville Center
Thu 02:23:05 PM 28.6500 -82.1167 174° South 407 468 13,100 -1,474 Descending Tampa TRACON
Thu 02:24:23 PM 28.5167 -82.0833 168° South 399 459 12,000 -909 Descending Tampa TRACON
Thu 02:25:17 PM 28.4167 -82.0833 180° South 366 421 11,100 -526 Descending Tampa TRACON
Thu 02:26:17 PM 28.3167 -82.0833 180° South 365 420 11,000 -52 Descending Tampa TRACON
Thu 02:27:12 PM 28.2333 -82.1000 190° South 358 412 11,000 -500 Level Tampa TRACON
Thu 02:28:17 PM 28.1333 -82.1333 196° South 309 356 10,000 -950 Descending Tampa TRACON
Thu 02:29:12 PM 28.0667 -82.1500 192° South 299 344 9,100 -991 Descending Tampa TRACON
Thu 02:30:06 PM 27.9833 -82.1667 190° South 302 348 8,200 -1,053 Descending Tampa TRACON
Thu 02:31:06 PM 27.9167 -82.2000 204° Southwest 290 334 7,100 -1,050 Descending Tampa TRACON
Thu 02:32:06 PM 27.8333 -82.2167 190° South 281 323 6,100 -579 Descending Tampa TRACON
Thu 02:33:00 PM 27.7667 -82.2333 192° South 277 319 6,000  Descending Tampa TRACON
Thu 02:34:06 PM 27.7000 -82.3000 222° Southwest 276 318 6,100  Climbing Tampa TRACON
Thu 02:35:00 PM 27.6500 -82.3500 222° Southwest 279 321 6,000 -421 Descending Tampa TRACON
Thu 02:36:00 PM 27.5833 -82.3833 204° Southwest 279 321 5,300 -1,150 Descending Tampa TRACON
Thu 02:37:00 PM 27.5167 -82.3667 167° South 268 308 3,700 -1,500 Descending Tampa TRACON
Thu 02:38:00 PM 27.4500 -82.4000 204° Southwest 266 306 2,300 -1,400 Descending Tampa TRACON

Login

Don't have an account? Register now (free) for customized features, flight alerts, and more!